San Antonio, Valles Caldera, New Mexico Weather observations

Data are for 10 minute period ending at time listed.
 Day   Time   Solar   Ave.   Ave.  Ave.  Vector  Max.   Baro.   Total    
  of    of     Rad.   Air    Rel.  Wind   Wind   Wind  Press.  Precip.   
Year   Day            Temp.  Hum.  Speed  Dir.   Gust                    
2017   (MST)  Kw/m2    F      %     mph   deg.    mph    mb.     in.     
-------------------------------------------------------------------------
  85   16:30   0.10   46.5    42   10.2   283    14.9   99999.0    0.00 
  85   16:40   0.09   44.0    46    8.3   291    15.5   99999.0    0.00 
  85   16:50   0.27   45.0    44    9.1   297    14.3   99999.0    0.00 
  85   17:00   0.10   45.5    44   10.0   282    17.3   99999.0    0.00 
  85   17:10   0.11   44.5    45    8.4   293    13.7   99999.0    0.00 
  85   17:20   0.17   44.8    45    9.1   299    14.9   99999.0    0.00 
  85   17:30   0.16   47.0    42    7.4   294    11.3   99999.0    0.00 
  85   17:40   0.04   44.9    44    8.1   303    13.7   99999.0    0.00 
  85   17:50   0.08   44.2    46    7.1   303    13.7   99999.0    0.00 
  85   18:00   0.04   43.4    46    8.6   296    14.9   99999.0    0.00 
  85   18:10   0.03   42.1    49    7.0   303    12.5   99999.0    0.00 
  85   18:20   0.01   41.4    51    3.9   322     8.4   99999.0    0.00 
  85   18:30   0.00   40.1    52    3.7   330     6.6   99999.0    0.00 
  85   18:40   0.00   39.0    54    3.2   333     6.6   99999.0    0.00 
  85   18:50   0.00   38.4    56    3.1   342     5.4   99999.0    0.00 
  85   19:00   0.00   37.8    57    2.8   355     7.2   99999.0    0.00 
  85   19:10   0.00   36.3    62    0.5   286     2.4   99999.0    0.00 
  85   19:20   0.00   34.6    67    0.8    18     2.4   99999.0    0.00 
  85   19:30   0.00   34.1    67    1.4    32     3.0   99999.0    0.00 
  85   19:40   0.00   33.7    67    1.8   342     3.6   99999.0    0.00 
  85   19:50   0.00   33.2    68    0.7     6     2.4   99999.0    0.00 
  85   20:00   0.00   33.1    68    0.5    69     1.8   99999.0    0.00 
  85   20:10   0.00   32.4    70    2.2    44     3.6   99999.0    0.00 
  85   20:20   0.00   31.9    71    1.6    40     3.6   99999.0    0.00 
  85   20:30   0.00   31.2    73    0.7     9     2.4   99999.0    0.00 
  85   20:40   0.00   30.5    74    1.4    24     3.0   99999.0    0.00 
  85   20:50   0.00   30.3    74    1.9    44     3.6   99999.0    0.00 
  85   21:00   0.00   30.1    74    0.6    40     2.4   99999.0    0.00 
  85   21:10   0.00   28.9    78    0.7    17     2.4   99999.0    0.00 
  85   21:20   0.00   28.2    80    0.7    30     2.4   99999.0    0.00 
  85   21:30   0.00   28.2    79    1.0   358     2.4   99999.0    0.00 
  85   21:40   0.00   28.0    80    0.6    21     1.8   99999.0    0.00 
  85   21:50   0.00   27.4    81    1.1    26     2.4   99999.0    0.00 
  85   22:00   0.00   27.1    82    1.9   324     3.0   99999.0    0.00 
  85   22:10   0.00   26.4    84    0.9    10     2.4   99999.0    0.00 
  85   22:20   0.00   26.6    84    0.7    64     2.4   99999.0    0.00 
  85   22:30   0.00   26.5    83    0.9   108     2.4   99999.0    0.00 
  85   22:40   0.00   25.8    85    2.2   108     3.0   99999.0    0.00 
  85   22:50   0.00   25.8    85    1.3   352     2.4   99999.0    0.00 
  85   23:00   0.00   25.4    86    0.8   357     3.0   99999.0    0.00 
  85   23:10   0.00   25.5    87    0.2   346     1.2   99999.0    0.00 
  85   23:20   0.00   25.8    87    0.6    17     2.4   99999.0    0.00 
  85   23:30   0.00   25.1    86    0.9   154     1.8   99999.0    0.00 
  85   23:40   0.00   24.7    88    1.2    37     2.4   99999.0    0.00 
  85   23:50   0.00   25.4    88    0.5    34     3.0   99999.0    0.00 
  86    0:00   0.00   24.9    86    1.6   289     3.6   99999.0    0.00 
  86    0:10   0.00   24.1    88    0.6   318     1.8   99999.0    0.00 
  86    0:20   0.00   24.2    89    0.0   245     1.2   99999.0    0.00 
  86    0:30   0.00   24.0    90    0.0     0     0.0   99999.0    0.00 
  86    0:40   0.00   24.2    90    0.0   299     1.2   99999.0    0.00 
  86    0:50   0.00   23.6    88    0.8   284     2.4   99999.0    0.00 
  86    1:00   0.00   23.7    90    0.6   122     1.8   99999.0    0.00 
  86    1:10   0.00   23.8    90    1.5   352     3.6   99999.0    0.00 
  86    1:20   0.00   23.4    90    2.1   308     4.2   99999.0    0.00 
  86    1:30   0.00   23.0    90    1.3   309     2.4   99999.0    0.00 
  86    1:40   0.00   22.8    91    1.7   320     3.0   99999.0    0.00 
  86    1:50   0.00   23.9    92    1.2   112     3.0   99999.0    0.00 
  86    2:00   0.00   23.6    89    0.5   191     2.4   99999.0    0.00 
  86    2:10   0.00   22.7    89    2.0   288     3.6   99999.0    0.00 
  86    2:20   0.00   22.2    90    2.3   318     3.6   99999.0    0.00 
  86    2:30   0.00   21.8    91    1.0   332     3.0   99999.0    0.00 
  86    2:40   0.00   21.9    92    2.4   269     3.6   99999.0    0.00 
  86    2:50   0.00   21.0    91    3.6   128     4.8   99999.0    0.00 
  86    3:00   0.00   21.8    92    1.4    62     3.0   99999.0    0.00 
  86    3:10   0.00   22.5    92    1.7    34     3.0   99999.0    0.00 
  86    3:20   0.00   22.5    91    0.8    54     3.0   99999.0    0.00 
  86    3:30   0.00   21.5    90    0.7   329     2.4   99999.0    0.00 
  86    3:40   0.00   21.8    92    1.0    53     2.4   99999.0    0.00 
  86    3:50   0.00   21.2    91    2.0   119     3.0   99999.0    0.00 
  86    4:00   0.00   21.3    92    0.5    33     1.8   99999.0    0.00 
  86    4:10   0.00   21.7    92    2.0    24     3.0   99999.0    0.00 
  86    4:20   0.00   21.7    92    0.7    10     2.4   99999.0    0.00 
  86    4:30   0.00   21.9    91    1.9   100     3.0   99999.0    0.00 
  86    4:40   0.00   21.3    91    1.6   315     3.0   99999.0    0.00 
  86    4:50   0.00   21.3    92    0.5    14     1.8   99999.0    0.00 
  86    5:00   0.00   20.6    91    0.8    88     2.4   99999.0    0.00 
  86    5:10   0.00   20.6    92    0.5    97     1.8   99999.0    0.00 
  86    5:20   0.00   20.8    92    1.1   340     2.4   99999.0    0.00 
  86    5:30   0.00   19.8    91    1.1   187     3.0   99999.0    0.00 
  86    5:40   0.00   19.4    92    0.6   104     1.8   99999.0    0.00 
  86    5:50   0.00   19.8    93    0.1   108     1.2   99999.0    0.00 
  86    6:00   0.00   19.9    93    0.0     0     0.0   99999.0    0.00 
  86    6:10   0.01   19.3    92    0.7    91     2.4   99999.0    0.00 
  86    6:20   0.01   19.7    94    1.6    12     3.0   99999.0    0.00 
  86    6:30   0.01   19.3    92    2.7   293     3.6   99999.0    0.00 
  86    6:40   0.01   19.1    92    1.4     1     3.0   99999.0    0.00 
  86    6:50   0.02   19.8    93    0.7   348     2.4   99999.0    0.00 
  86    7:00   0.02   20.5    93    0.2   216     3.0   99999.0    0.00 
  86    7:10   0.16   22.9    93    0.5    62     3.6   99999.0    0.00 
  86    7:20   0.23   30.2    80    0.9   130     3.0   99999.0    0.00 
  86    7:30   0.26   30.7    73    1.5   132     3.0   99999.0    0.00 
  86    7:40   0.29   32.0    74    0.4   115     1.8   99999.0    0.00 
  86    7:50   0.32   34.4    68    1.0   166     2.4   99999.0    0.00 
  86    8:00   0.34   33.8    71    1.3   170     2.4   99999.0    0.00 
  86    8:10   0.39   36.1    70    1.1   257     2.4   99999.0    0.00 
  86    8:20   0.44   37.2    67    1.0   256     2.4   99999.0    0.00 
  86    8:30   0.48   37.5    68    1.7   255     3.0   99999.0    0.00 
  86    8:40   0.51   38.8    68    1.8   244     3.6   99999.0    0.00 
  86    8:50   0.54   40.4    65    1.4   223     3.0   99999.0    0.00 
  86    9:00   0.57   43.3    57    1.4   200     3.0   99999.0    0.00 
  86    9:10   0.60   47.0    44    1.9   299     3.6   99999.0    0.00 
  86    9:20   0.63   48.4    39    3.6   267     9.0   99999.0    0.00 
  86    9:30   0.66   45.9    41    6.4   233     9.0   99999.0    0.00 
  86    9:40   0.69   46.3    40    5.3   242    10.2   99999.0    0.00 
  86    9:50   0.71   46.2    38    6.4   238    10.2   99999.0    0.00 
  86   10:00   0.74   46.7    37    5.7   234     9.6   99999.0    0.00 
  86   10:10   0.78   47.5    36    5.8   246    10.8   99999.0    0.00 
  86   10:20   0.64   47.2    36    5.0   222     8.4   99999.0    0.00 
  86   10:30   0.61   48.2    34    3.8   239    10.2   99999.0    0.00 
  86   10:40   0.91   49.0    33    5.4   240    13.1   99999.0    0.00 
  86   10:50   0.90   49.2    33    4.8   236    11.3   99999.0    0.00 
  86   11:00   0.82   49.4    34    7.5   214    11.9   99999.0    0.00 
  86   11:10   0.80   49.2    33    6.0   226    12.5   99999.0    0.00 
  86   11:20   0.62   48.3    34    3.4   229    13.1   99999.0    0.00 
  86   11:30   1.01   50.3    33    8.5   250    13.1   99999.0    0.00 
  86   11:40   1.01   50.8    33    6.1   244    12.5   99999.0    0.00 
  86   11:50   0.98   51.1    32    5.8   273    11.9   99999.0    0.00 
  86   12:00   0.98   52.0    32    7.5   263    13.7   99999.0    0.00 
  86   12:10   0.86   52.2    32    6.8   258    13.1   99999.0    0.00 
  86   12:20   0.37   49.6    33    5.8   185    13.1   99999.0    0.00 
  86   12:30   0.37   48.6    35    7.7   159    15.5   99999.0    0.00 
  86   12:40   0.32   48.1    35    8.4   138    13.7   99999.0    0.00 
  86   12:50   0.35   48.0    34    7.3   141    12.5   99999.0    0.00 
  86   13:00   0.57   49.3    33    3.5   123     9.0   99999.0    0.00 
  86   13:10   1.05   52.7    30    8.3   284    14.9   99999.0    0.00 
  86   13:20   0.96   54.3    29    9.9   272    16.7   99999.0    0.00 
  86   13:30   1.03   53.7    29    9.8   248    16.1   99999.0    0.00 
  86   13:40   0.97   52.8    29    9.1   242    14.9   99999.0    0.00 
  86   13:50   0.90   52.0    29    9.3   228    16.1   99999.0    0.00 
  86   14:00   0.68   51.1    29    7.5   236    11.9   99999.0    0.00 
  86   14:10   0.75   51.7    30    7.4   145    14.3   99999.0    0.00 
  86   14:20   0.53   52.0    31    8.2   182    16.7   99999.0    0.00 
  86   14:30   0.22   49.5    34    7.9   209    13.7   99999.0    0.00 
  86   14:40   0.15   48.5    35    6.6   201    11.3   99999.0    0.00 
  86   14:50   0.19   48.4    34    7.3   229    14.3   99999.0    0.00 
  86   15:00   0.34   48.8    36    8.5   237    18.5   99999.0    0.00 
  86   15:10   0.40   49.2    34    9.4   232    16.1   99999.0    0.00 
  86   15:20   0.22   49.3    34    8.0   212    14.3   99999.0    0.00 
  86   15:30   0.19   47.6    36    7.7   250    17.9   99999.0    0.00 
  86   15:40   0.28   48.3    36    6.7   225    11.9   99999.0    0.00 
  86   15:50   0.23   47.9    39    8.8   204    17.3   99999.0    0.00 
  86   16:00   0.18   46.7    41    8.0   236    12.5   99999.0    0.00 
  86   16:10   0.11   46.3    42    8.5   258    13.7   99999.0    0.00 
  86   16:20   0.09   45.9    45    9.9   260    16.7   99999.0    0.00 

Return to San Antonio, Valles Caldera graphs page.


Western Regional Climate Center,wrcc@dri.edu